sensor_id;sensor_type;location;lat;lon;timestamp;pressure;altitude;pressure_sealevel;temperature;humidity
43745;BME280;29359;53.048;8.732;2023-03-16T00:00:46;102107.47;;;-0.47;85.75
43745;BME280;29359;53.048;8.732;2023-03-16T00:02:47;102102.28;;;-0.47;85.91
43745;BME280;29359;53.048;8.732;2023-03-16T00:04:49;102112.66;;;-0.47;85.62
43745;BME280;29359;53.048;8.732;2023-03-16T00:06:51;102118.75;;;-0.47;85.81
43745;BME280;29359;53.048;8.732;2023-03-16T00:08:52;102114.44;;;-0.46;85.60
43745;BME280;29359;53.048;8.732;2023-03-16T00:10:59;102111.84;;;-0.46;85.63
43745;BME280;29359;53.048;8.732;2023-03-16T00:13:00;102116.16;;;-0.47;85.36
43745;BME280;29359;53.048;8.732;2023-03-16T00:15:03;102109.19;;;-0.48;85.67
43745;BME280;29359;53.048;8.732;2023-03-16T00:17:04;102103.94;;;-0.49;85.40
43745;BME280;29359;53.048;8.732;2023-03-16T00:19:06;102110.00;;;-0.49;85.31
43745;BME280;29359;53.048;8.732;2023-03-16T00:21:08;102115.19;;;-0.49;85.41
43745;BME280;29359;53.048;8.732;2023-03-16T00:23:10;102108.25;;;-0.50;85.82
43745;BME280;29359;53.048;8.732;2023-03-16T00:25:13;102104.78;;;-0.50;85.25
43745;BME280;29359;53.048;8.732;2023-03-16T00:27:15;102104.78;;;-0.50;85.23
43745;BME280;29359;53.048;8.732;2023-03-16T00:29:17;102104.78;;;-0.50;85.05
43745;BME280;29359;53.048;8.732;2023-03-16T00:31:19;102109.06;;;-0.51;84.84
43745;BME280;29359;53.048;8.732;2023-03-16T00:33:20;102101.28;;;-0.51;84.99
43745;BME280;29359;53.048;8.732;2023-03-16T00:35:23;102100.41;;;-0.51;85.15
43745;BME280;29359;53.048;8.732;2023-03-16T00:37:26;102103.00;;;-0.51;84.58
43745;BME280;29359;53.048;8.732;2023-03-16T00:39:28;102106.44;;;-0.52;84.62
43745;BME280;29359;53.048;8.732;2023-03-16T00:41:29;102106.38;;;-0.54;84.54
43745;BME280;29359;53.048;8.732;2023-03-16T00:43:33;102104.59;;;-0.55;84.71
43745;BME280;29359;53.048;8.732;2023-03-16T00:45:41;102109.78;;;-0.55;84.60
43745;BME280;29359;53.048;8.732;2023-03-16T00:47:45;102106.25;;;-0.57;84.60
43745;BME280;29359;53.048;8.732;2023-03-16T00:49:46;102107.97;;;-0.57;84.62
43745;BME280;29359;53.048;8.732;2023-03-16T00:51:48;102098.31;;;-0.61;84.66
43745;BME280;29359;53.048;8.732;2023-03-16T00:53:49;102104.31;;;-0.63;84.50
43745;BME280;29359;53.048;8.732;2023-03-16T00:55:51;102101.63;;;-0.66;84.74
43745;BME280;29359;53.048;8.732;2023-03-16T00:57:53;102099.03;;;-0.66;84.53
43745;BME280;29359;53.048;8.732;2023-03-16T00:59:55;102098.97;;;-0.67;84.69
43745;BME280;29359;53.048;8.732;2023-03-16T01:01:56;102093.72;;;-0.69;84.33
43745;BME280;29359;53.048;8.732;2023-03-16T01:03:58;102089.38;;;-0.70;84.30
43745;BME280;29359;53.048;8.732;2023-03-16T01:06:08;102087.66;;;-0.69;84.49
43745;BME280;29359;53.048;8.732;2023-03-16T01:08:10;102086.72;;;-0.71;84.72
43745;BME280;29359;53.048;8.732;2023-03-16T01:10:12;102092.72;;;-0.72;84.55
43745;BME280;29359;53.048;8.732;2023-03-16T01:12:17;102094.44;;;-0.73;84.51
43745;BME280;29359;53.048;8.732;2023-03-16T01:14:20;102092.66;;;-0.74;84.53
43745;BME280;29359;53.048;8.732;2023-03-16T01:16:22;102084.84;;;-0.75;84.35
43745;BME280;29359;53.048;8.732;2023-03-16T01:18:24;102089.97;;;-0.77;84.41
43745;BME280;29359;53.048;8.732;2023-03-16T01:20:26;102088.13;;;-0.79;84.34
43745;BME280;29359;53.048;8.732;2023-03-16T01:22:28;102089.78;;;-0.81;84.32
43745;BME280;29359;53.048;8.732;2023-03-16T01:24:29;102088.84;;;-0.83;84.33
43745;BME280;29359;53.048;8.732;2023-03-16T01:26:31;102082.72;;;-0.85;84.25
43745;BME280;29359;53.048;8.732;2023-03-16T01:28:33;102083.53;;;-0.86;84.52
43745;BME280;29359;53.048;8.732;2023-03-16T01:30:34;102082.63;;;-0.87;84.46
43745;BME280;29359;53.048;8.732;2023-03-16T01:32:37;102081.69;;;-0.89;84.45
43745;BME280;29359;53.048;8.732;2023-03-16T01:34:38;102075.63;;;-0.89;84.65
43745;BME280;29359;53.048;8.732;2023-03-16T01:36:42;102073.84;;;-0.90;84.45
43745;BME280;29359;53.048;8.732;2023-03-16T01:38:47;102078.09;;;-0.92;84.85
43745;BME280;29359;53.048;8.732;2023-03-16T01:40:50;102076.34;;;-0.93;84.21
43745;BME280;29359;53.048;8.732;2023-03-16T01:43:01;102064.25;;;-0.93;84.56
43745;BME280;29359;53.048;8.732;2023-03-16T01:45:03;102066.78;;;-0.95;84.36
43745;BME280;29359;53.048;8.732;2023-03-16T01:47:06;102063.25;;;-0.97;84.26
43745;BME280;29359;53.048;8.732;2023-03-16T01:49:14;102057.97;;;-1.00;84.38
43745;BME280;29359;53.048;8.732;2023-03-16T01:51:24;102049.25;;;-1.02;84.21
43745;BME280;29359;53.048;8.732;2023-03-16T01:53:28;102050.88;;;-1.04;84.41
43745;BME280;29359;53.048;8.732;2023-03-16T01:55:29;102054.31;;;-1.05;84.59
43745;BME280;29359;53.048;8.732;2023-03-16T01:57:33;102055.13;;;-1.06;84.45
43745;BME280;29359;53.048;8.732;2023-03-16T02:01:41;102059.38;;;-1.08;84.44
43745;BME280;29359;53.048;8.732;2023-03-16T02:03:44;102049.00;;;-1.08;84.35
43745;BME280;29359;53.048;8.732;2023-03-16T02:05:54;102049.00;;;-1.08;84.27
43745;BME280;29359;53.048;8.732;2023-03-16T02:07:57;102046.41;;;-1.08;84.59
43745;BME280;29359;53.048;8.732;2023-03-16T02:10:00;102042.06;;;-1.09;84.41
43745;BME280;29359;53.048;8.732;2023-03-16T02:12:03;102037.69;;;-1.10;84.58
43745;BME280;29359;53.048;8.732;2023-03-16T02:14:09;102037.66;;;-1.11;84.45
43745;BME280;29359;53.048;8.732;2023-03-16T02:16:12;102028.94;;;-1.13;84.55
43745;BME280;29359;53.048;8.732;2023-03-16T02:18:20;102021.09;;;-1.15;84.63
43745;BME280;29359;53.048;8.732;2023-03-16T02:22:36;102015.78;;;-1.18;84.65
43745;BME280;29359;53.048;8.732;2023-03-16T02:24:40;102020.91;;;-1.19;84.73
43745;BME280;29359;53.048;8.732;2023-03-16T02:29:11;102015.50;;;-1.25;84.62
43745;BME280;29359;53.048;8.732;2023-03-16T02:31:15;102012.81;;;-1.29;84.64
43745;BME280;29359;53.048;8.732;2023-03-16T02:33:18;102017.00;;;-1.31;84.50
43745;BME280;29359;53.048;8.732;2023-03-16T02:35:21;102012.59;;;-1.33;84.60
43745;BME280;29359;53.048;8.732;2023-03-16T02:37:23;102009.88;;;-1.36;84.72
43745;BME280;29359;53.048;8.732;2023-03-16T02:39:24;102016.72;;;-1.38;84.92
43745;BME280;29359;53.048;8.732;2023-03-16T02:41:26;102020.13;;;-1.39;84.80
43745;BME280;29359;53.048;8.732;2023-03-16T02:43:30;102014.06;;;-1.40;84.98
43745;BME280;29359;53.048;8.732;2023-03-16T02:45:51;102014.81;;;-1.42;84.94
43745;BME280;29359;53.048;8.732;2023-03-16T02:47:53;102012.94;;;-1.46;84.89
43745;BME280;29359;53.048;8.732;2023-03-16T02:49:55;102015.41;;;-1.49;84.98
43745;BME280;29359;53.048;8.732;2023-03-16T02:51:56;102005.00;;;-1.51;84.99
43745;BME280;29359;53.048;8.732;2023-03-16T02:53:58;102009.28;;;-1.51;84.99
43745;BME280;29359;53.048;8.732;2023-03-16T02:55:59;102001.53;;;-1.51;84.83
43745;BME280;29359;53.048;8.732;2023-03-16T02:58:03;101996.28;;;-1.53;84.99
43745;BME280;29359;53.048;8.732;2023-03-16T03:00:05;101998.94;;;-1.51;85.14
43745;BME280;29359;53.048;8.732;2023-03-16T03:02:14;102000.63;;;-1.52;84.95
43745;BME280;29359;53.048;8.732;2023-03-16T03:04:16;102003.22;;;-1.52;84.87
43745;BME280;29359;53.048;8.732;2023-03-16T03:06:18;102013.53;;;-1.53;84.94
43745;BME280;29359;53.048;8.732;2023-03-16T03:08:19;102013.53;;;-1.53;84.94
43745;BME280;29359;53.048;8.732;2023-03-16T03:10:22;102012.66;;;-1.54;84.86
43745;BME280;29359;53.048;8.732;2023-03-16T03:12:24;102016.94;;;-1.54;84.80
43745;BME280;29359;53.048;8.732;2023-03-16T03:14:26;102008.34;;;-1.53;84.76
43745;BME280;29359;53.048;8.732;2023-03-16T03:16:29;102012.59;;;-1.55;84.66
43745;BME280;29359;53.048;8.732;2023-03-16T03:18:31;102015.16;;;-1.55;84.65
43745;BME280;29359;53.048;8.732;2023-03-16T03:20:34;102007.41;;;-1.55;84.58
43745;BME280;29359;53.048;8.732;2023-03-16T03:22:36;101998.69;;;-1.58;84.54
43745;BME280;29359;53.048;8.732;2023-03-16T03:24:37;101999.50;;;-1.59;84.48
43745;BME280;29359;53.048;8.732;2023-03-16T03:26:39;101998.63;;;-1.59;84.70
43745;BME280;29359;53.048;8.732;2023-03-16T03:28:41;101997.81;;;-1.58;84.64
43745;BME280;29359;53.048;8.732;2023-03-16T03:30:43;101999.50;;;-1.59;84.57
43745;BME280;29359;53.048;8.732;2023-03-16T03:32:45;102003.81;;;-1.59;84.40
43745;BME280;29359;53.048;8.732;2023-03-16T03:34:47;102000.34;;;-1.60;84.35
43745;BME280;29359;53.048;8.732;2023-03-16T03:36:48;101989.91;;;-1.61;84.40
43745;BME280;29359;53.048;8.732;2023-03-16T03:38:50;102001.16;;;-1.61;84.57
43745;BME280;29359;53.048;8.732;2023-03-16T03:40:52;101996.81;;;-1.62;84.31
43745;BME280;29359;53.048;8.732;2023-03-16T03:42:54;101991.56;;;-1.63;84.25
43745;BME280;29359;53.048;8.732;2023-03-16T03:44:55;101994.97;;;-1.64;84.23
43745;BME280;29359;53.048;8.732;2023-03-16T03:46:57;101987.16;;;-1.66;84.48
43745;BME280;29359;53.048;8.732;2023-03-16T03:48:58;101995.75;;;-1.67;84.50
43745;BME280;29359;53.048;8.732;2023-03-16T03:51:04;101993.97;;;-1.68;84.38
43745;BME280;29359;53.048;8.732;2023-03-16T03:53:06;101994.78;;;-1.69;84.38
43745;BME280;29359;53.048;8.732;2023-03-16T03:55:09;101999.91;;;-1.70;84.47
43745;BME280;29359;53.048;8.732;2023-03-16T03:57:11;102001.63;;;-1.71;84.42
43745;BME280;29359;53.048;8.732;2023-03-16T03:59:12;101996.44;;;-1.71;84.55
43745;BME280;29359;53.048;8.732;2023-03-16T04:01:14;101998.22;;;-1.70;84.46
43745;BME280;29359;53.048;8.732;2023-03-16T04:03:15;101996.50;;;-1.69;84.61
43745;BME280;29359;53.048;8.732;2023-03-16T04:05:17;102003.50;;;-1.67;84.37
43745;BME280;29359;53.048;8.732;2023-03-16T04:07:19;102004.38;;;-1.66;84.41
43745;BME280;29359;53.048;8.732;2023-03-16T04:09:21;102007.94;;;-1.64;84.56
43745;BME280;29359;53.048;8.732;2023-03-16T04:11:22;102008.94;;;-1.61;84.51
43745;BME280;29359;53.048;8.732;2023-03-16T04:13:24;102013.34;;;-1.58;84.73
43745;BME280;29359;53.048;8.732;2023-03-16T04:15:25;102003.09;;;-1.55;84.70
43745;BME280;29359;53.048;8.732;2023-03-16T04:17:27;102002.41;;;-1.51;85.00
43745;BME280;29359;53.048;8.732;2023-03-16T04:19:29;102005.06;;;-1.49;84.95
43745;BME280;29359;53.048;8.732;2023-03-16T04:21:30;101998.34;;;-1.44;85.13
43745;BME280;29359;53.048;8.732;2023-03-16T04:23:33;102002.81;;;-1.40;85.14
43745;BME280;29359;53.048;8.732;2023-03-16T04:25:35;101996.88;;;-1.38;85.22
43745;BME280;29359;53.048;8.732;2023-03-16T04:27:38;101990.03;;;-1.36;85.52
43745;BME280;29359;53.048;8.732;2023-03-16T04:29:40;101989.34;;;-1.32;85.49
43745;BME280;29359;53.048;8.732;2023-03-16T04:31:43;101983.41;;;-1.29;85.46
43745;BME280;29359;53.048;8.732;2023-03-16T04:33:45;101983.53;;;-1.26;86.09
43745;BME280;29359;53.048;8.732;2023-03-16T04:35:47;101985.41;;;-1.22;86.04
43745;BME280;29359;53.048;8.732;2023-03-16T04:37:48;101976.06;;;-1.18;86.09
43745;BME280;29359;53.048;8.732;2023-03-16T04:39:50;101975.28;;;-1.16;86.25
43745;BME280;29359;53.048;8.732;2023-03-16T04:41:51;101971.91;;;-1.13;86.34
43745;BME280;29359;53.048;8.732;2023-03-16T04:43:53;101971.16;;;-1.11;86.66
43745;BME280;29359;53.048;8.732;2023-03-16T04:45:54;101973.78;;;-1.09;86.66
43745;BME280;29359;53.048;8.732;2023-03-16T04:47:56;101973.03;;;-1.07;86.58
43745;BME280;29359;53.048;8.732;2023-03-16T04:49:57;101962.78;;;-1.04;86.68
43745;BME280;29359;53.048;8.732;2023-03-16T04:51:59;101961.13;;;-1.02;86.72
43745;BME280;29359;53.048;8.732;2023-03-16T04:54:01;101950.81;;;-1.00;86.71
43745;BME280;29359;53.048;8.732;2023-03-16T04:56:02;101946.56;;;-0.98;86.88
43745;BME280;29359;53.048;8.732;2023-03-16T04:58:04;101954.44;;;-0.95;86.87
43745;BME280;29359;53.048;8.732;2023-03-16T05:00:06;101950.19;;;-0.93;86.93
43745;BME280;29359;53.048;8.732;2023-03-16T05:02:20;101954.63;;;-0.90;87.20
43745;BME280;29359;53.048;8.732;2023-03-16T05:04:21;101958.13;;;-0.88;87.15
43745;BME280;29359;53.048;8.732;2023-03-16T05:06:24;101953.09;;;-0.85;87.21
43745;BME280;29359;53.048;8.732;2023-03-16T05:08:26;101947.97;;;-0.84;87.39
43745;BME280;29359;53.048;8.732;2023-03-16T05:10:27;101945.44;;;-0.82;87.44
43745;BME280;29359;53.048;8.732;2023-03-16T05:12:29;101941.19;;;-0.80;87.08
43745;BME280;29359;53.048;8.732;2023-03-16T05:14:31;101937.81;;;-0.78;87.37
43745;BME280;29359;53.048;8.732;2023-03-16T05:16:32;101933.50;;;-0.77;87.36
43745;BME280;29359;53.048;8.732;2023-03-16T05:18:34;101931.03;;;-0.74;87.35
43745;BME280;29359;53.048;8.732;2023-03-16T05:20:35;101931.06;;;-0.73;87.19
43745;BME280;29359;53.048;8.732;2023-03-16T05:22:42;101937.25;;;-0.69;87.32
43745;BME280;29359;53.048;8.732;2023-03-16T05:24:44;101935.59;;;-0.67;87.10
43745;BME280;29359;53.048;8.732;2023-03-16T05:26:45;101939.13;;;-0.65;87.24
43745;BME280;29359;53.048;8.732;2023-03-16T05:28:47;101940.06;;;-0.63;87.45
43745;BME280;29359;53.048;8.732;2023-03-16T05:30:48;101934.09;;;-0.60;87.22
43745;BME280;29359;53.048;8.732;2023-03-16T05:32:50;101943.75;;;-0.56;87.12
43745;BME280;29359;53.048;8.732;2023-03-16T05:34:51;101942.09;;;-0.54;87.46
43745;BME280;29359;53.048;8.732;2023-03-16T05:36:56;101939.59;;;-0.51;87.10
43745;BME280;29359;53.048;8.732;2023-03-16T05:38:57;101933.63;;;-0.49;87.01
43745;BME280;29359;53.048;8.732;2023-03-16T05:40:59;101938.03;;;-0.46;87.39
43745;BME280;29359;53.048;8.732;2023-03-16T05:43:05;101939.06;;;-0.43;87.14
43745;BME280;29359;53.048;8.732;2023-03-16T05:45:07;101940.00;;;-0.41;87.32
43745;BME280;29359;53.048;8.732;2023-03-16T05:47:09;101943.56;;;-0.37;87.39
43745;BME280;29359;53.048;8.732;2023-03-16T05:49:11;101943.66;;;-0.34;86.95
43745;BME280;29359;53.048;8.732;2023-03-16T05:51:13;101935.16;;;-0.30;86.88
43745;BME280;29359;53.048;8.732;2023-03-16T05:53:14;101936.13;;;-0.26;87.36
43745;BME280;29359;53.048;8.732;2023-03-16T05:55:17;101931.06;;;-0.23;86.86
43745;BME280;29359;53.048;8.732;2023-03-16T05:57:19;101935.47;;;-0.21;87.26
43745;BME280;29359;53.048;8.732;2023-03-16T05:59:20;101932.91;;;-0.19;86.88
43745;BME280;29359;53.048;8.732;2023-03-16T06:01:22;101936.50;;;-0.16;86.99
43745;BME280;29359;53.048;8.732;2023-03-16T06:03:24;101930.50;;;-0.13;86.79
43745;BME280;29359;53.048;8.732;2023-03-16T06:05:26;101936.63;;;-0.11;86.99
43745;BME280;29359;53.048;8.732;2023-03-16T06:07:28;101928.91;;;-0.10;87.09
43745;BME280;29359;53.048;8.732;2023-03-16T06:09:30;101930.72;;;-0.07;86.86
43745;BME280;29359;53.048;8.732;2023-03-16T06:11:31;101923.03;;;-0.04;87.07
43745;BME280;29359;53.048;8.732;2023-03-16T06:13:33;101922.25;;;-0.02;87.39
43745;BME280;29359;53.048;8.732;2023-03-16T06:15:35;101929.19;;;-0.01;87.44
43745;BME280;29359;53.048;8.732;2023-03-16T06:17:38;101930.19;;;0.03;87.12
43745;BME280;29359;53.048;8.732;2023-03-16T06:19:39;101928.53;;;0.05;86.97
43745;BME280;29359;53.048;8.732;2023-03-16T06:21:41;101935.53;;;0.08;87.15
43745;BME280;29359;53.048;8.732;2023-03-16T06:23:43;101932.16;;;0.10;87.58
43745;BME280;29359;53.048;8.732;2023-03-16T06:25:48;101937.44;;;0.13;87.06
43745;BME280;29359;53.048;8.732;2023-03-16T06:27:50;101947.94;;;0.16;87.36
43745;BME280;29359;53.048;8.732;2023-03-16T06:29:51;101947.16;;;0.19;87.53
43745;BME280;29359;53.048;8.732;2023-03-16T06:31:53;101958.56;;;0.24;87.44
43745;BME280;29359;53.048;8.732;2023-03-16T06:33:55;101953.50;;;0.28;87.41
43745;BME280;29359;53.048;8.732;2023-03-16T06:35:56;101955.38;;;0.32;87.42
43745;BME280;29359;53.048;8.732;2023-03-16T06:37:58;101960.78;;;0.40;87.25
43745;BME280;29359;53.048;8.732;2023-03-16T06:40:00;101959.25;;;0.45;87.14
43745;BME280;29359;53.048;8.732;2023-03-16T06:42:01;101957.72;;;0.52;87.19
43745;BME280;29359;53.048;8.732;2023-03-16T06:44:04;101965.69;;;0.58;87.07
43745;BME280;29359;53.048;8.732;2023-03-16T06:46:06;101969.31;;;0.63;86.76
43745;BME280;29359;53.048;8.732;2023-03-16T06:48:08;101965.13;;;0.68;86.05
43745;BME280;29359;53.048;8.732;2023-03-16T06:50:10;101972.19;;;0.72;86.37
43745;BME280;29359;53.048;8.732;2023-03-16T06:52:12;101963.66;;;0.76;86.52
43745;BME280;29359;53.048;8.732;2023-03-16T06:54:14;101961.19;;;0.81;85.91
43745;BME280;29359;53.048;8.732;2023-03-16T06:56:16;101963.03;;;0.85;85.84
43745;BME280;29359;53.048;8.732;2023-03-16T06:58:17;101964.91;;;0.89;85.32
43745;BME280;29359;53.048;8.732;2023-03-16T07:00:19;101960.69;;;0.92;85.54
43745;BME280;29359;53.048;8.732;2023-03-16T07:02:21;101965.13;;;0.97;85.04
43745;BME280;29359;53.048;8.732;2023-03-16T07:04:23;101958.31;;;1.00;85.05
43745;BME280;29359;53.048;8.732;2023-03-16T07:06:25;101964.56;;;1.07;84.66
43745;BME280;29359;53.048;8.732;2023-03-16T07:08:27;101963.84;;;1.12;84.73
43745;BME280;29359;53.048;8.732;2023-03-16T07:10:30;101964.00;;;1.18;84.54
43745;BME280;29359;53.048;8.732;2023-03-16T07:12:31;101963.31;;;1.24;84.69
43745;BME280;29359;53.048;8.732;2023-03-16T07:14:33;101962.59;;;1.30;84.60
43745;BME280;29359;53.048;8.732;2023-03-16T07:16:34;101963.66;;;1.36;83.86
43745;BME280;29359;53.048;8.732;2023-03-16T07:18:36;101961.22;;;1.42;83.68
43745;BME280;29359;53.048;8.732;2023-03-16T07:20:40;101966.63;;;1.50;83.41
43745;BME280;29359;53.048;8.732;2023-03-16T07:22:42;101972.03;;;1.57;83.35
43745;BME280;29359;53.048;8.732;2023-03-16T07:24:44;101967.03;;;1.65;82.70
43745;BME280;29359;53.048;8.732;2023-03-16T07:26:45;101971.53;;;1.71;83.02
43745;BME280;29359;53.048;8.732;2023-03-16T07:28:47;101968.25;;;1.78;82.54
43745;BME280;29359;53.048;8.732;2023-03-16T07:30:49;101972.78;;;1.85;82.02
43745;BME280;29359;53.048;8.732;2023-03-16T07:33:03;101967.72;;;1.91;81.33
43745;BME280;29359;53.048;8.732;2023-03-16T07:35:09;101972.25;;;1.98;81.00
43745;BME280;29359;53.048;8.732;2023-03-16T07:37:12;101968.13;;;2.08;80.81
43745;BME280;29359;53.048;8.732;2023-03-16T07:39:14;101968.28;;;2.14;79.97
43745;BME280;29359;53.048;8.732;2023-03-16T07:41:18;101965.88;;;2.22;79.66
43745;BME280;29359;53.048;8.732;2023-03-16T07:43:19;101968.69;;;2.29;79.12
43745;BME280;29359;53.048;8.732;2023-03-16T07:45:21;101974.94;;;2.37;78.73
43745;BME280;29359;53.048;8.732;2023-03-16T07:47:22;101980.34;;;2.45;77.97
43745;BME280;29359;53.048;8.732;2023-03-16T07:49:27;101969.22;;;2.53;77.54
43745;BME280;29359;53.048;8.732;2023-03-16T07:51:28;101984.13;;;2.59;77.30
43745;BME280;29359;53.048;8.732;2023-03-16T07:53:30;101976.53;;;2.68;77.10
43745;BME280;29359;53.048;8.732;2023-03-16T07:55:32;101976.72;;;2.76;76.74
43745;BME280;29359;53.048;8.732;2023-03-16T07:57:36;101975.16;;;2.84;76.11
43745;BME280;29359;53.048;8.732;2023-03-16T07:59:39;101970.09;;;2.92;76.04
43745;BME280;29359;53.048;8.732;2023-03-16T08:01:41;101964.19;;;3.00;75.56
43745;BME280;29359;53.048;8.732;2023-03-16T08:03:43;101965.22;;;3.07;75.25
43745;BME280;29359;53.048;8.732;2023-03-16T08:05:45;101959.25;;;3.14;74.38
43745;BME280;29359;53.048;8.732;2023-03-16T08:07:46;101961.19;;;3.23;73.59
43745;BME280;29359;53.048;8.732;2023-03-16T08:09:48;101965.75;;;3.34;73.56
43745;BME280;29359;53.048;8.732;2023-03-16T08:11:49;101968.53;;;3.43;73.64
43745;BME280;29359;53.048;8.732;2023-03-16T08:13:51;101963.47;;;3.51;73.02
43745;BME280;29359;53.048;8.732;2023-03-16T08:15:54;101956.63;;;3.58;72.66
43745;BME280;29359;53.048;8.732;2023-03-16T08:18:00;101965.47;;;3.64;71.96
43745;BME280;29359;53.048;8.732;2023-03-16T08:20:05;101972.56;;;3.71;71.80
43745;BME280;29359;53.048;8.732;2023-03-16T08:22:11;101975.25;;;3.76;71.48
43745;BME280;29359;53.048;8.732;2023-03-16T08:24:12;101971.88;;;3.83;70.76
43745;BME280;29359;53.048;8.732;2023-03-16T08:26:15;101973.78;;;3.90;70.87
43745;BME280;29359;53.048;8.732;2023-03-16T08:28:19;101978.25;;;3.97;70.18
43745;BME280;29359;53.048;8.732;2023-03-16T08:30:22;101973.97;;;4.02;69.54
43745;BME280;29359;53.048;8.732;2023-03-16T08:32:23;101969.75;;;4.09;70.05
43745;BME280;29359;53.048;8.732;2023-03-16T08:34:26;101968.97;;;4.16;70.68
43745;BME280;29359;53.048;8.732;2023-03-16T08:36:28;101969.13;;;4.25;70.17
43745;BME280;29359;53.048;8.732;2023-03-16T08:38:30;101966.63;;;4.33;70.55
43745;BME280;29359;53.048;8.732;2023-03-16T08:40:32;101965.06;;;4.43;70.26
43745;BME280;29359;53.048;8.732;2023-03-16T08:42:36;101959.94;;;4.50;70.14
43745;BME280;29359;53.048;8.732;2023-03-16T08:44:39;101964.41;;;4.57;70.22
43745;BME280;29359;53.048;8.732;2023-03-16T08:46:40;101962.78;;;4.67;69.35
43745;BME280;29359;53.048;8.732;2023-03-16T08:48:42;101958.56;;;4.77;69.17
43745;BME280;29359;53.048;8.732;2023-03-16T08:50:44;101958.69;;;4.84;69.02
43745;BME280;29359;53.048;8.732;2023-03-16T08:52:46;101956.16;;;4.90;66.44
43745;BME280;29359;53.048;8.732;2023-03-16T08:54:49;101958.00;;;4.99;66.13
43745;BME280;29359;53.048;8.732;2023-03-16T08:57:03;101949.38;;;5.08;66.82
43745;BME280;29359;53.048;8.732;2023-03-16T08:59:05;101949.47;;;5.17;66.02
43745;BME280;29359;53.048;8.732;2023-03-16T09:01:09;101948.75;;;5.27;66.14
43745;BME280;29359;53.048;8.732;2023-03-16T09:03:12;101947.97;;;5.34;65.26
43745;BME280;29359;53.048;8.732;2023-03-16T09:05:14;101945.38;;;5.37;64.33
43745;BME280;29359;53.048;8.732;2023-03-16T09:07:16;101946.28;;;5.42;63.77
43745;BME280;29359;53.048;8.732;2023-03-16T09:09:18;101947.19;;;5.46;62.91
43745;BME280;29359;53.048;8.732;2023-03-16T09:11:20;101943.72;;;5.47;62.13
43745;BME280;29359;53.048;8.732;2023-03-16T09:13:22;101942.91;;;5.54;62.25
43745;BME280;29359;53.048;8.732;2023-03-16T09:15:25;101940.34;;;5.60;63.60
43745;BME280;29359;53.048;8.732;2023-03-16T09:17:27;101946.56;;;5.66;62.96
43745;BME280;29359;53.048;8.732;2023-03-16T09:19:28;101946.59;;;5.71;62.49
43745;BME280;29359;53.048;8.732;2023-03-16T09:21:50;101937.06;;;5.78;61.83
43745;BME280;29359;53.048;8.732;2023-03-16T09:23:52;101938.03;;;5.89;62.70
43745;BME280;29359;53.048;8.732;2023-03-16T09:26:00;101936.41;;;6.02;62.89
43745;BME280;29359;53.048;8.732;2023-03-16T09:28:02;101933.03;;;6.13;63.42
43745;BME280;29359;53.048;8.732;2023-03-16T09:30:05;101933.09;;;6.22;62.71
43745;BME280;29359;53.048;8.732;2023-03-16T09:32:08;101933.13;;;6.25;60.04
43745;BME280;29359;53.048;8.732;2023-03-16T09:34:10;101941.03;;;6.35;61.08
43745;BME280;29359;53.048;8.732;2023-03-16T09:36:12;101936.72;;;6.44;60.84
43745;BME280;29359;53.048;8.732;2023-03-16T09:38:15;101932.41;;;6.49;60.38
43745;BME280;29359;53.048;8.732;2023-03-16T09:40:28;101928.09;;;6.56;61.98
43745;BME280;29359;53.048;8.732;2023-03-16T09:42:40;101931.59;;;6.56;57.83
43745;BME280;29359;53.048;8.732;2023-03-16T09:47:00;101933.38;;;6.62;57.10
43745;BME280;29359;53.048;8.732;2023-03-16T09:49:03;101936.88;;;6.63;55.56
43745;BME280;29359;53.048;8.732;2023-03-16T09:51:11;101927.25;;;6.63;56.40
43745;BME280;29359;53.048;8.732;2023-03-16T09:53:34;101931.63;;;6.66;57.29
43745;BME280;29359;53.048;8.732;2023-03-16T09:55:37;101930.81;;;6.76;58.47
43745;BME280;29359;53.048;8.732;2023-03-16T09:57:42;101930.00;;;6.89;58.62
43745;BME280;29359;53.048;8.732;2023-03-16T09:59:44;101936.16;;;6.94;56.83
43745;BME280;29359;53.048;8.732;2023-03-16T10:01:56;101925.69;;;6.96;56.68
43745;BME280;29359;53.048;8.732;2023-03-16T10:06:13;101928.31;;;7.00;57.23
43745;BME280;29359;53.048;8.732;2023-03-16T10:08:24;101926.56;;;7.02;57.60
43745;BME280;29359;53.048;8.732;2023-03-16T10:10:38;101922.19;;;7.00;56.44
43745;BME280;29359;53.048;8.732;2023-03-16T10:12:48;101919.56;;;7.00;57.22
43745;BME280;29359;53.048;8.732;2023-03-16T10:14:56;101916.94;;;7.01;57.01
43745;BME280;29359;53.048;8.732;2023-03-16T10:19:14;101917.84;;;7.12;58.10
43745;BME280;29359;53.048;8.732;2023-03-16T10:21:19;101917.00;;;7.19;58.74
43745;BME280;29359;53.048;8.732;2023-03-16T10:23:25;101910.88;;;7.28;57.42
43745;BME280;29359;53.048;8.732;2023-03-16T10:25:38;101906.50;;;7.30;56.26
43745;BME280;29359;53.048;8.732;2023-03-16T10:27:43;101909.16;;;7.32;55.70
43745;BME280;29359;53.048;8.732;2023-03-16T10:29:46;101910.03;;;7.37;56.01
43745;BME280;29359;53.048;8.732;2023-03-16T10:31:48;101903.94;;;7.47;58.02
43745;BME280;29359;53.048;8.732;2023-03-16T10:33:51;101896.94;;;7.63;60.93
43745;BME280;29359;53.048;8.732;2023-03-16T10:36:03;101910.09;;;7.76;58.24
43745;BME280;29359;53.048;8.732;2023-03-16T10:38:45;101896.97;;;7.90;58.67
43745;BME280;29359;53.048;8.732;2023-03-16T10:40:51;101886.44;;;8.04;57.70
43745;BME280;29359;53.048;8.732;2023-03-16T10:42:53;101888.19;;;8.08;56.37
43745;BME280;29359;53.048;8.732;2023-03-16T10:44:58;101888.19;;;8.11;55.66
43745;BME280;29359;53.048;8.732;2023-03-16T10:47:04;101884.69;;;8.10;56.90
43745;BME280;29359;53.048;8.732;2023-03-16T10:51:23;101895.22;;;8.09;52.77
43745;BME280;29359;53.048;8.732;2023-03-16T10:53:30;101898.72;;;8.06;52.93
43745;BME280;29359;53.048;8.732;2023-03-16T10:55:41;101896.94;;;8.17;53.31
43745;BME280;29359;53.048;8.732;2023-03-16T10:57:54;101890.81;;;8.29;52.91
43745;BME280;29359;53.048;8.732;2023-03-16T11:00:06;101885.53;;;8.32;52.71
43745;BME280;29359;53.048;8.732;2023-03-16T11:02:24;101886.44;;;8.42;54.17
43745;BME280;29359;53.048;8.732;2023-03-16T11:04:31;101889.00;;;8.57;58.04